sensor_id;sensor_type;location;lat;lon;timestamp;P1;durP1;ratioP1;P2;durP2;ratioP2
41829;SDS011;38614;43.472;23.936;2023-12-22T00:01:55;21.38;;;8.95;;
41829;SDS011;38614;43.472;23.936;2023-12-22T00:04:43;24.42;;;10.30;;
41829;SDS011;38614;43.472;23.936;2023-12-22T00:07:31;14.88;;;7.85;;
41829;SDS011;38614;43.472;23.936;2023-12-22T00:10:19;26.83;;;9.93;;
41829;SDS011;38614;43.472;23.936;2023-12-22T00:13:06;19.70;;;7.63;;
41829;SDS011;38614;43.472;23.936;2023-12-22T00:15:57;26.90;;;8.50;;
41829;SDS011;38614;43.472;23.936;2023-12-22T00:18:45;28.98;;;10.13;;
41829;SDS011;38614;43.472;23.936;2023-12-22T00:21:33;28.55;;;10.85;;
41829;SDS011;38614;43.472;23.936;2023-12-22T00:24:20;33.67;;;12.00;;
41829;SDS011;38614;43.472;23.936;2023-12-22T00:27:08;20.35;;;9.88;;
41829;SDS011;38614;43.472;23.936;2023-12-22T00:29:56;20.60;;;8.23;;
41829;SDS011;38614;43.472;23.936;2023-12-22T00:32:44;22.35;;;7.53;;
41829;SDS011;38614;43.472;23.936;2023-12-22T00:35:32;23.38;;;9.02;;
41829;SDS011;38614;43.472;23.936;2023-12-22T00:38:23;15.50;;;7.90;;
41829;SDS011;38614;43.472;23.936;2023-12-22T00:41:11;11.77;;;5.85;;
41829;SDS011;38614;43.472;23.936;2023-12-22T00:43:58;13.75;;;5.53;;
41829;SDS011;38614;43.472;23.936;2023-12-22T00:46:46;11.27;;;4.95;;
41829;SDS011;38614;43.472;23.936;2023-12-22T00:49:34;9.57;;;4.85;;
41829;SDS011;38614;43.472;23.936;2023-12-22T00:52:25;13.85;;;5.78;;
41829;SDS011;38614;43.472;23.936;2023-12-22T00:55:13;13.23;;;7.20;;
41829;SDS011;38614;43.472;23.936;2023-12-22T00:58:01;14.05;;;6.13;;
41829;SDS011;38614;43.472;23.936;2023-12-22T01:00:49;11.15;;;5.50;;
41829;SDS011;38614;43.472;23.936;2023-12-22T01:03:37;14.30;;;7.57;;
41829;SDS011;38614;43.472;23.936;2023-12-22T01:06:25;13.93;;;5.88;;
41829;SDS011;38614;43.472;23.936;2023-12-22T01:09:17;11.25;;;4.75;;
41829;SDS011;38614;43.472;23.936;2023-12-22T01:12:07;7.05;;;3.90;;
41829;SDS011;38614;43.472;23.936;2023-12-22T01:14:55;9.10;;;5.55;;
41829;SDS011;38614;43.472;23.936;2023-12-22T01:17:43;7.63;;;3.80;;
41829;SDS011;38614;43.472;23.936;2023-12-22T01:20:31;11.38;;;5.47;;
41829;SDS011;38614;43.472;23.936;2023-12-22T01:23:20;8.55;;;4.43;;
41829;SDS011;38614;43.472;23.936;2023-12-22T01:26:07;14.45;;;5.38;;
41829;SDS011;38614;43.472;23.936;2023-12-22T01:28:55;8.20;;;5.13;;
41829;SDS011;38614;43.472;23.936;2023-12-22T01:31:43;11.30;;;6.45;;
41829;SDS011;38614;43.472;23.936;2023-12-22T01:34:32;13.73;;;7.72;;
41829;SDS011;38614;43.472;23.936;2023-12-22T01:37:19;14.95;;;7.32;;
41829;SDS011;38614;43.472;23.936;2023-12-22T01:40:07;17.40;;;8.32;;
41829;SDS011;38614;43.472;23.936;2023-12-22T01:42:55;14.55;;;7.60;;
41829;SDS011;38614;43.472;23.936;2023-12-22T01:45:43;17.23;;;8.15;;
41829;SDS011;38614;43.472;23.936;2023-12-22T01:48:32;15.68;;;7.45;;
41829;SDS011;38614;43.472;23.936;2023-12-22T01:51:20;20.67;;;7.25;;
41829;SDS011;38614;43.472;23.936;2023-12-22T01:54:08;14.07;;;7.68;;
41829;SDS011;38614;43.472;23.936;2023-12-22T01:56:57;19.23;;;7.93;;
41829;SDS011;38614;43.472;23.936;2023-12-22T01:59:48;14.57;;;7.95;;
41829;SDS011;38614;43.472;23.936;2023-12-22T02:02:36;19.33;;;9.50;;
41829;SDS011;38614;43.472;23.936;2023-12-22T02:05:25;19.40;;;9.90;;
41829;SDS011;38614;43.472;23.936;2023-12-22T02:08:15;27.88;;;11.15;;
41829;SDS011;38614;43.472;23.936;2023-12-22T02:11:05;26.27;;;10.98;;
41829;SDS011;38614;43.472;23.936;2023-12-22T02:13:53;31.27;;;12.40;;
41829;SDS011;38614;43.472;23.936;2023-12-22T02:19:45;35.67;;;14.93;;
41829;SDS011;38614;43.472;23.936;2023-12-22T02:22:34;33.53;;;17.42;;
41829;SDS011;38614;43.472;23.936;2023-12-22T02:25:22;34.33;;;14.90;;
41829;SDS011;38614;43.472;23.936;2023-12-22T02:28:11;36.65;;;12.18;;
41829;SDS011;38614;43.472;23.936;2023-12-22T02:31:06;24.13;;;12.30;;
41829;SDS011;38614;43.472;23.936;2023-12-22T02:33:57;25.50;;;10.35;;
41829;SDS011;38614;43.472;23.936;2023-12-22T02:36:46;21.13;;;10.25;;
41829;SDS011;38614;43.472;23.936;2023-12-22T02:39:35;21.70;;;9.65;;
41829;SDS011;38614;43.472;23.936;2023-12-22T02:42:23;18.38;;;9.40;;
41829;SDS011;38614;43.472;23.936;2023-12-22T02:45:19;23.33;;;11.38;;
41829;SDS011;38614;43.472;23.936;2023-12-22T02:48:07;23.48;;;11.20;;
41829;SDS011;38614;43.472;23.936;2023-12-22T02:50:55;22.92;;;9.73;;
41829;SDS011;38614;43.472;23.936;2023-12-22T02:53:43;24.33;;;11.50;;
41829;SDS011;38614;43.472;23.936;2023-12-22T02:56:31;26.48;;;11.38;;
41829;SDS011;38614;43.472;23.936;2023-12-22T02:59:19;23.50;;;10.85;;
41829;SDS011;38614;43.472;23.936;2023-12-22T03:02:07;20.48;;;8.98;;
41829;SDS011;38614;43.472;23.936;2023-12-22T03:04:55;15.30;;;7.18;;
41829;SDS011;38614;43.472;23.936;2023-12-22T03:07:43;16.83;;;6.65;;
41829;SDS011;38614;43.472;23.936;2023-12-22T03:10:30;13.30;;;6.70;;
41829;SDS011;38614;43.472;23.936;2023-12-22T03:13:18;14.15;;;4.82;;
41829;SDS011;38614;43.472;23.936;2023-12-22T03:16:09;7.50;;;4.20;;
41829;SDS011;38614;43.472;23.936;2023-12-22T03:18:57;10.57;;;3.58;;
41829;SDS011;38614;43.472;23.936;2023-12-22T03:21:45;6.95;;;3.58;;
41829;SDS011;38614;43.472;23.936;2023-12-22T03:24:33;6.93;;;3.83;;
41829;SDS011;38614;43.472;23.936;2023-12-22T03:27:21;67.82;;;24.48;;
41829;SDS011;38614;43.472;23.936;2023-12-22T03:30:09;23.30;;;11.02;;
41829;SDS011;38614;43.472;23.936;2023-12-22T03:32:57;10.98;;;4.18;;
41829;SDS011;38614;43.472;23.936;2023-12-22T03:35:45;8.63;;;4.82;;
41829;SDS011;38614;43.472;23.936;2023-12-22T03:38:32;19.95;;;6.32;;
41829;SDS011;38614;43.472;23.936;2023-12-22T03:41:21;18.35;;;6.50;;
41829;SDS011;38614;43.472;23.936;2023-12-22T03:44:11;10.40;;;5.28;;
41829;SDS011;38614;43.472;23.936;2023-12-22T03:46:59;19.05;;;6.63;;
41829;SDS011;38614;43.472;23.936;2023-12-22T03:49:47;14.55;;;5.05;;
41829;SDS011;38614;43.472;23.936;2023-12-22T03:52:35;9.43;;;5.40;;
41829;SDS011;38614;43.472;23.936;2023-12-22T03:55:22;12.63;;;6.68;;
41829;SDS011;38614;43.472;23.936;2023-12-22T03:58:13;14.57;;;7.05;;
41829;SDS011;38614;43.472;23.936;2023-12-22T04:01:01;21.23;;;9.23;;
41829;SDS011;38614;43.472;23.936;2023-12-22T04:03:49;20.55;;;10.25;;
41829;SDS011;38614;43.472;23.936;2023-12-22T04:06:38;18.77;;;9.15;;
41829;SDS011;38614;43.472;23.936;2023-12-22T04:09:26;14.10;;;7.90;;
41829;SDS011;38614;43.472;23.936;2023-12-22T04:12:14;23.75;;;10.63;;
41829;SDS011;38614;43.472;23.936;2023-12-22T04:15:02;20.83;;;11.10;;
41829;SDS011;38614;43.472;23.936;2023-12-22T04:17:50;22.85;;;8.95;;
41829;SDS011;38614;43.472;23.936;2023-12-22T04:20:38;23.30;;;9.38;;
41829;SDS011;38614;43.472;23.936;2023-12-22T04:23:28;18.00;;;8.57;;
41829;SDS011;38614;43.472;23.936;2023-12-22T04:26:16;17.67;;;9.15;;
41829;SDS011;38614;43.472;23.936;2023-12-22T04:29:04;15.32;;;7.20;;
41829;SDS011;38614;43.472;23.936;2023-12-22T04:31:51;22.42;;;9.52;;
41829;SDS011;38614;43.472;23.936;2023-12-22T04:34:39;17.42;;;9.85;;
41829;SDS011;38614;43.472;23.936;2023-12-22T04:37:28;17.90;;;10.00;;
41829;SDS011;38614;43.472;23.936;2023-12-22T04:40:16;14.63;;;7.85;;
41829;SDS011;38614;43.472;23.936;2023-12-22T04:43:07;26.08;;;8.75;;
41829;SDS011;38614;43.472;23.936;2023-12-22T04:45:54;18.80;;;8.85;;
41829;SDS011;38614;43.472;23.936;2023-12-22T04:48:42;24.98;;;10.35;;
41829;SDS011;38614;43.472;23.936;2023-12-22T04:51:31;26.63;;;12.60;;
41829;SDS011;38614;43.472;23.936;2023-12-22T04:54:18;22.08;;;11.23;;
41829;SDS011;38614;43.472;23.936;2023-12-22T04:57:06;32.97;;;11.68;;
41829;SDS011;38614;43.472;23.936;2023-12-22T04:59:54;28.95;;;13.82;;
41829;SDS011;38614;43.472;23.936;2023-12-22T05:02:42;33.50;;;15.05;;
41829;SDS011;38614;43.472;23.936;2023-12-22T05:05:30;38.20;;;15.65;;
41829;SDS011;38614;43.472;23.936;2023-12-22T05:08:18;32.45;;;15.02;;
41829;SDS011;38614;43.472;23.936;2023-12-22T05:11:05;29.38;;;13.13;;
41829;SDS011;38614;43.472;23.936;2023-12-22T05:13:53;27.67;;;13.77;;
41829;SDS011;38614;43.472;23.936;2023-12-22T05:16:41;25.67;;;13.95;;
41829;SDS011;38614;43.472;23.936;2023-12-22T05:19:29;43.00;;;13.27;;
41829;SDS011;38614;43.472;23.936;2023-12-22T05:22:16;30.45;;;12.32;;
41829;SDS011;38614;43.472;23.936;2023-12-22T05:25:05;33.60;;;12.75;;
41829;SDS011;38614;43.472;23.936;2023-12-22T05:27:53;26.13;;;11.80;;
41829;SDS011;38614;43.472;23.936;2023-12-22T05:30:40;26.17;;;12.52;;
41829;SDS011;38614;43.472;23.936;2023-12-22T05:33:28;28.65;;;12.77;;
41829;SDS011;38614;43.472;23.936;2023-12-22T05:36:17;26.48;;;12.57;;
41829;SDS011;38614;43.472;23.936;2023-12-22T05:39:05;35.78;;;12.23;;
41829;SDS011;38614;43.472;23.936;2023-12-22T05:41:56;33.07;;;12.37;;
41829;SDS011;38614;43.472;23.936;2023-12-22T05:44:44;27.08;;;13.02;;
41829;SDS011;38614;43.472;23.936;2023-12-22T05:47:37;26.20;;;12.52;;
41829;SDS011;38614;43.472;23.936;2023-12-22T05:50:25;27.17;;;12.13;;
41829;SDS011;38614;43.472;23.936;2023-12-22T05:53:14;36.50;;;12.65;;
41829;SDS011;38614;43.472;23.936;2023-12-22T05:56:02;40.08;;;17.58;;
41829;SDS011;38614;43.472;23.936;2023-12-22T05:58:50;45.58;;;19.90;;
41829;SDS011;38614;43.472;23.936;2023-12-22T06:01:38;58.03;;;23.70;;
41829;SDS011;38614;43.472;23.936;2023-12-22T06:04:26;43.58;;;22.48;;
41829;SDS011;38614;43.472;23.936;2023-12-22T06:07:16;56.67;;;23.42;;
41829;SDS011;38614;43.472;23.936;2023-12-22T06:10:10;65.80;;;25.23;;
41829;SDS011;38614;43.472;23.936;2023-12-22T06:13:01;65.72;;;29.58;;
41829;SDS011;38614;43.472;23.936;2023-12-22T06:15:50;77.18;;;34.85;;
41829;SDS011;38614;43.472;23.936;2023-12-22T06:18:38;78.50;;;38.67;;
41829;SDS011;38614;43.472;23.936;2023-12-22T06:21:26;101.22;;;40.25;;
41829;SDS011;38614;43.472;23.936;2023-12-22T06:24:14;81.35;;;35.97;;
41829;SDS011;38614;43.472;23.936;2023-12-22T06:27:02;66.47;;;33.15;;
41829;SDS011;38614;43.472;23.936;2023-12-22T06:29:49;76.15;;;38.15;;
41829;SDS011;38614;43.472;23.936;2023-12-22T06:32:37;73.25;;;34.38;;
41829;SDS011;38614;43.472;23.936;2023-12-22T06:35:27;72.60;;;33.97;;
41829;SDS011;38614;43.472;23.936;2023-12-22T06:38:15;71.72;;;32.75;;
41829;SDS011;38614;43.472;23.936;2023-12-22T06:41:03;91.30;;;37.28;;
41829;SDS011;38614;43.472;23.936;2023-12-22T06:43:51;85.32;;;34.80;;
41829;SDS011;38614;43.472;23.936;2023-12-22T06:46:40;79.93;;;33.20;;
41829;SDS011;38614;43.472;23.936;2023-12-22T06:49:28;97.93;;;38.42;;
41829;SDS011;38614;43.472;23.936;2023-12-22T06:52:16;96.22;;;38.85;;
41829;SDS011;38614;43.472;23.936;2023-12-22T06:55:04;113.88;;;48.58;;
41829;SDS011;38614;43.472;23.936;2023-12-22T06:57:52;102.53;;;49.13;;
41829;SDS011;38614;43.472;23.936;2023-12-22T07:00:40;88.13;;;39.60;;
41829;SDS011;38614;43.472;23.936;2023-12-22T07:03:28;89.38;;;39.38;;
41829;SDS011;38614;43.472;23.936;2023-12-22T07:06:16;82.20;;;38.95;;
41829;SDS011;38614;43.472;23.936;2023-12-22T07:12:01;228.10;;;78.45;;
41829;SDS011;38614;43.472;23.936;2023-12-22T07:14:51;140.25;;;54.85;;
41829;SDS011;38614;43.472;23.936;2023-12-22T07:17:38;121.75;;;48.92;;
41829;SDS011;38614;43.472;23.936;2023-12-22T07:20:27;72.78;;;33.63;;
41829;SDS011;38614;43.472;23.936;2023-12-22T07:23:15;118.53;;;40.50;;
41829;SDS011;38614;43.472;23.936;2023-12-22T07:26:03;114.00;;;41.03;;
41829;SDS011;38614;43.472;23.936;2023-12-22T07:28:58;121.80;;;37.63;;
41829;SDS011;38614;43.472;23.936;2023-12-22T07:31:47;103.90;;;36.97;;
41829;SDS011;38614;43.472;23.936;2023-12-22T07:34:34;85.35;;;34.45;;
41829;SDS011;38614;43.472;23.936;2023-12-22T07:37:25;95.93;;;35.65;;
41829;SDS011;38614;43.472;23.936;2023-12-22T07:40:15;75.57;;;28.52;;
41829;SDS011;38614;43.472;23.936;2023-12-22T07:43:04;40.60;;;16.73;;
41829;SDS011;38614;43.472;23.936;2023-12-22T07:45:51;9.85;;;5.68;;
41829;SDS011;38614;43.472;23.936;2023-12-22T07:48:40;8.50;;;3.95;;
41829;SDS011;38614;43.472;23.936;2023-12-22T07:51:28;25.85;;;7.63;;
41829;SDS011;38614;43.472;23.936;2023-12-22T07:54:16;9.13;;;4.15;;
41829;SDS011;38614;43.472;23.936;2023-12-22T07:57:04;11.95;;;4.50;;
41829;SDS011;38614;43.472;23.936;2023-12-22T07:59:52;10.50;;;5.85;;
41829;SDS011;38614;43.472;23.936;2023-12-22T08:02:40;4.03;;;2.38;;
41829;SDS011;38614;43.472;23.936;2023-12-22T08:05:28;18.05;;;3.83;;
41829;SDS011;38614;43.472;23.936;2023-12-22T08:08:17;11.05;;;3.60;;
41829;SDS011;38614;43.472;23.936;2023-12-22T08:11:05;9.18;;;2.75;;
41829;SDS011;38614;43.472;23.936;2023-12-22T08:13:52;5.65;;;2.10;;
41829;SDS011;38614;43.472;23.936;2023-12-22T08:16:41;5.13;;;1.80;;
41829;SDS011;38614;43.472;23.936;2023-12-22T08:19:29;3.88;;;1.70;;
41829;SDS011;38614;43.472;23.936;2023-12-22T08:22:18;5.45;;;1.52;;
41829;SDS011;38614;43.472;23.936;2023-12-22T08:25:08;1.98;;;1.70;;
41829;SDS011;38614;43.472;23.936;2023-12-22T08:27:56;4.53;;;1.77;;
41829;SDS011;38614;43.472;23.936;2023-12-22T08:30:44;4.78;;;2.63;;
41829;SDS011;38614;43.472;23.936;2023-12-22T08:33:32;15.68;;;2.40;;
41829;SDS011;38614;43.472;23.936;2023-12-22T08:36:20;5.65;;;2.33;;
41829;SDS011;38614;43.472;23.936;2023-12-22T08:39:10;7.15;;;1.83;;
41829;SDS011;38614;43.472;23.936;2023-12-22T08:41:58;4.93;;;2.15;;
41829;SDS011;38614;43.472;23.936;2023-12-22T08:44:46;4.22;;;2.42;;
41829;SDS011;38614;43.472;23.936;2023-12-22T08:47:34;5.70;;;1.75;;
41829;SDS011;38614;43.472;23.936;2023-12-22T08:50:22;3.00;;;1.58;;
41829;SDS011;38614;43.472;23.936;2023-12-22T08:53:09;1.50;;;1.25;;
41829;SDS011;38614;43.472;23.936;2023-12-22T08:56:05;2.13;;;0.80;;
41829;SDS011;38614;43.472;23.936;2023-12-22T08:58:54;3.45;;;0.40;;
41829;SDS011;38614;43.472;23.936;2023-12-22T09:01:43;0.50;;;0.50;;
41829;SDS011;38614;43.472;23.936;2023-12-22T09:04:31;4.45;;;0.30;;
41829;SDS011;38614;43.472;23.936;2023-12-22T09:07:19;3.08;;;0.68;;
41829;SDS011;38614;43.472;23.936;2023-12-22T09:10:07;0.68;;;0.20;;
41829;SDS011;38614;43.472;23.936;2023-12-22T09:12:55;4.60;;;0.10;;
41829;SDS011;38614;43.472;23.936;2023-12-22T09:15:43;0.32;;;0.20;;
41829;SDS011;38614;43.472;23.936;2023-12-22T09:18:34;0.90;;;0.10;;
41829;SDS011;38614;43.472;23.936;2023-12-22T09:21:22;0.38;;;0.10;;
41829;SDS011;38614;43.472;23.936;2023-12-22T09:24:09;1.70;;;0.28;;
41829;SDS011;38614;43.472;23.936;2023-12-22T09:27:02;0.75;;;0.10;;
41829;SDS011;38614;43.472;23.936;2023-12-22T09:30:12;1.33;;;0.20;;
41829;SDS011;38614;43.472;23.936;2023-12-22T09:33:02;0.95;;;0.15;;
41829;SDS011;38614;43.472;23.936;2023-12-22T09:35:50;0.80;;;0.17;;
41829;SDS011;38614;43.472;23.936;2023-12-22T09:38:39;4.78;;;0.70;;
41829;SDS011;38614;43.472;23.936;2023-12-22T09:41:26;0.80;;;0.20;;
41829;SDS011;38614;43.472;23.936;2023-12-22T09:44:18;0.50;;;0.05;;
41829;SDS011;38614;43.472;23.936;2023-12-22T09:47:06;1.05;;;0.32;;
41829;SDS011;38614;43.472;23.936;2023-12-22T09:49:54;1.75;;;0.10;;
41829;SDS011;38614;43.472;23.936;2023-12-22T09:52:43;1.85;;;0.35;;
41829;SDS011;38614;43.472;23.936;2023-12-22T09:55:34;2.53;;;0.10;;
41829;SDS011;38614;43.472;23.936;2023-12-22T09:58:22;0.20;;;0.08;;
41829;SDS011;38614;43.472;23.936;2023-12-22T10:01:10;0.32;;;0.10;;
41829;SDS011;38614;43.472;23.936;2023-12-22T10:03:58;0.75;;;0.10;;
41829;SDS011;38614;43.472;23.936;2023-12-22T10:06:46;3.92;;;0.75;;
41829;SDS011;38614;43.472;23.936;2023-12-22T10:09:37;1.67;;;0.00;;
41829;SDS011;38614;43.472;23.936;2023-12-22T10:12:25;0.57;;;0.25;;
41829;SDS011;38614;43.472;23.936;2023-12-22T10:15:14;0.95;;;0.13;;
41829;SDS011;38614;43.472;23.936;2023-12-22T10:18:01;0.20;;;0.00;;
41829;SDS011;38614;43.472;23.936;2023-12-22T10:20:49;4.45;;;0.10;;
41829;SDS011;38614;43.472;23.936;2023-12-22T10:23:38;5.88;;;0.38;;
41829;SDS011;38614;43.472;23.936;2023-12-22T10:26:26;1.85;;;0.50;;
41829;SDS011;38614;43.472;23.936;2023-12-22T10:29:13;4.30;;;0.80;;
41829;SDS011;38614;43.472;23.936;2023-12-22T10:32:02;0.90;;;0.20;;
41829;SDS011;38614;43.472;23.936;2023-12-22T10:34:55;2.45;;;0.22;;
41829;SDS011;38614;43.472;23.936;2023-12-22T10:37:48;5.65;;;0.10;;
41829;SDS011;38614;43.472;23.936;2023-12-22T10:40:39;2.63;;;0.05;;
41829;SDS011;38614;43.472;23.936;2023-12-22T10:43:26;2.33;;;0.57;;
41829;SDS011;38614;43.472;23.936;2023-12-22T10:46:15;6.95;;;0.20;;
41829;SDS011;38614;43.472;23.936;2023-12-22T10:49:03;1.48;;;0.00;;
41829;SDS011;38614;43.472;23.936;2023-12-22T10:51:54;1.45;;;0.20;;
41829;SDS011;38614;43.472;23.936;2023-12-22T10:54:41;3.90;;;0.20;;
41829;SDS011;38614;43.472;23.936;2023-12-22T10:57:32;0.65;;;0.17;;
41829;SDS011;38614;43.472;23.936;2023-12-22T11:00:25;6.45;;;0.10;;
41829;SDS011;38614;43.472;23.936;2023-12-22T11:03:16;1.42;;;0.25;;
41829;SDS011;38614;43.472;23.936;2023-12-22T11:06:06;1.92;;;0.77;;
41829;SDS011;38614;43.472;23.936;2023-12-22T11:08:58;4.05;;;0.77;;
41829;SDS011;38614;43.472;23.936;2023-12-22T11:11:45;0.50;;;0.28;;
41829;SDS011;38614;43.472;23.936;2023-12-22T11:14:34;0.32;;;0.10;;
41829;SDS011;38614;43.472;23.936;2023-12-22T11:17:22;0.75;;;0.00;;
41829;SDS011;38614;43.472;23.936;2023-12-22T11:20:10;1.80;;;0.38;;
41829;SDS011;38614;43.472;23.936;2023-12-22T11:22:59;5.85;;;0.10;;
41829;SDS011;38614;43.472;23.936;2023-12-22T11:25:47;3.55;;;0.70;;
41829;SDS011;38614;43.472;23.936;2023-12-22T11:28:37;0.30;;;0.03;;
41829;SDS011;38614;43.472;23.936;2023-12-22T11:31:26;2.20;;;0.20;;
41829;SDS011;38614;43.472;23.936;2023-12-22T11:34:15;0.80;;;0.10;;
41829;SDS011;38614;43.472;23.936;2023-12-22T11:37:06;0.80;;;0.10;;
41829;SDS011;38614;43.472;23.936;2023-12-22T11:39:54;0.95;;;0.20;;
41829;SDS011;38614;43.472;23.936;2023-12-22T11:42:43;1.08;;;0.10;;
41829;SDS011;38614;43.472;23.936;2023-12-22T11:45:35;0.22;;;0.20;;
41829;SDS011;38614;43.472;23.936;2023-12-22T11:48:23;0.40;;;0.22;;
41829;SDS011;38614;43.472;23.936;2023-12-22T11:51:12;1.75;;;0.30;;
41829;SDS011;38614;43.472;23.936;2023-12-22T11:54:02;1.63;;;0.00;;
41829;SDS011;38614;43.472;23.936;2023-12-22T11:56:50;0.60;;;0.03;;
41829;SDS011;38614;43.472;23.936;2023-12-22T11:59:38;0.57;;;0.20;;
41829;SDS011;38614;43.472;23.936;2023-12-22T12:02:35;0.30;;;0.20;;
41829;SDS011;38614;43.472;23.936;2023-12-22T12:05:27;0.50;;;0.20;;
41829;SDS011;38614;43.472;23.936;2023-12-22T12:08:15;1.67;;;0.50;;
41829;SDS011;38614;43.472;23.936;2023-12-22T12:11:03;1.95;;;0.35;;
41829;SDS011;38614;43.472;23.936;2023-12-22T12:13:51;2.47;;;0.80;;
41829;SDS011;38614;43.472;23.936;2023-12-22T12:16:39;1.63;;;0.28;;
41829;SDS011;38614;43.472;23.936;2023-12-22T12:19:28;10.18;;;1.10;;
41829;SDS011;38614;43.472;23.936;2023-12-22T12:22:16;1.05;;;0.28;;
41829;SDS011;38614;43.472;23.936;2023-12-22T12:25:10;1.75;;;0.45;;
41829;SDS011;38614;43.472;23.936;2023-12-22T12:28:12;1.88;;;0.63;;
41829;SDS011;38614;43.472;23.936;2023-12-22T12:31:00;5.80;;;0.75;;
41829;SDS011;38614;43.472;23.936;2023-12-22T12:33:48;3.75;;;0.88;;
41829;SDS011;38614;43.472;23.936;2023-12-22T12:36:36;1.58;;;0.38;;
41829;SDS011;38614;43.472;23.936;2023-12-22T12:39:28;2.05;;;0.47;;
41829;SDS011;38614;43.472;23.936;2023-12-22T12:42:22;2.35;;;0.32;;
41829;SDS011;38614;43.472;23.936;2023-12-22T12:45:10;7.15;;;0.45;;
41829;SDS011;38614;43.472;23.936;2023-12-22T12:47:58;0.93;;;0.30;;
41829;SDS011;38614;43.472;23.936;2023-12-22T12:50:48;2.42;;;0.50;;
41829;SDS011;38614;43.472;23.936;2023-12-22T12:53:36;3.88;;;0.45;;
41829;SDS011;38614;43.472;23.936;2023-12-22T12:56:24;8.63;;;0.47;;
41829;SDS011;38614;43.472;23.936;2023-12-22T12:59:15;1.48;;;0.30;;
41829;SDS011;38614;43.472;23.936;2023-12-22T13:02:04;9.27;;;1.30;;
41829;SDS011;38614;43.472;23.936;2023-12-22T13:04:52;3.90;;;0.50;;
41829;SDS011;38614;43.472;23.936;2023-12-22T13:07:39;3.08;;;0.98;;
41829;SDS011;38614;43.472;23.936;2023-12-22T13:10:27;3.08;;;0.63;;
41829;SDS011;38614;43.472;23.936;2023-12-22T13:13:17;3.38;;;0.75;;
41829;SDS011;38614;43.472;23.936;2023-12-22T13:16:04;5.03;;;0.45;;
41829;SDS011;38614;43.472;23.936;2023-12-22T13:18:52;6.03;;;1.60;;
41829;SDS011;38614;43.472;23.936;2023-12-22T13:21:40;1.65;;;0.55;;
41829;SDS011;38614;43.472;23.936;2023-12-22T13:24:28;11.52;;;1.00;;
41829;SDS011;38614;43.472;23.936;2023-12-22T13:27:17;4.65;;;0.88;;
41829;SDS011;38614;43.472;23.936;2023-12-22T13:30:05;9.57;;;2.45;;
41829;SDS011;38614;43.472;23.936;2023-12-22T13:32:55;2.22;;;1.05;;
41829;SDS011;38614;43.472;23.936;2023-12-22T13:35:43;5.05;;;1.20;;
41829;SDS011;38614;43.472;23.936;2023-12-22T13:38:32;10.13;;;2.05;;
41829;SDS011;38614;43.472;23.936;2023-12-22T13:41:21;1.95;;;0.65;;
41829;SDS011;38614;43.472;23.936;2023-12-22T13:44:08;4.13;;;1.00;;
41829;SDS011;38614;43.472;23.936;2023-12-22T13:47:02;1.52;;;0.50;;
41829;SDS011;38614;43.472;23.936;2023-12-22T13:49:51;9.73;;;0.63;;
41829;SDS011;38614;43.472;23.936;2023-12-22T13:52:39;1.77;;;0.57;;
41829;SDS011;38614;43.472;23.936;2023-12-22T13:55:26;4.90;;;0.60;;
41829;SDS011;38614;43.472;23.936;2023-12-22T13:58:14;2.83;;;0.90;;
41829;SDS011;38614;43.472;23.936;2023-12-22T14:01:02;6.40;;;0.77;;
41829;SDS011;38614;43.472;23.936;2023-12-22T14:04:00;4.32;;;0.80;;
41829;SDS011;38614;43.472;23.936;2023-12-22T14:06:47;7.00;;;0.98;;
41829;SDS011;38614;43.472;23.936;2023-12-22T14:09:35;7.75;;;1.33;;
41829;SDS011;38614;43.472;23.936;2023-12-22T14:12:25;1.02;;;0.75;;
41829;SDS011;38614;43.472;23.936;2023-12-22T14:15:24;2.88;;;0.80;;
41829;SDS011;38614;43.472;23.936;2023-12-22T14:18:20;7.50;;;1.00;;
41829;SDS011;38614;43.472;23.936;2023-12-22T14:21:08;3.47;;;0.90;;
41829;SDS011;38614;43.472;23.936;2023-12-22T14:23:56;7.45;;;1.00;;
41829;SDS011;38614;43.472;23.936;2023-12-22T14:26:53;2.65;;;0.95;;
41829;SDS011;38614;43.472;23.936;2023-12-22T14:29:42;1.13;;;0.70;;
41829;SDS011;38614;43.472;23.936;2023-12-22T14:32:29;3.05;;;0.45;;
41829;SDS011;38614;43.472;23.936;2023-12-22T14:35:17;1.00;;;0.70;;
41829;SDS011;38614;43.472;23.936;2023-12-22T14:38:06;3.35;;;0.60;;
41829;SDS011;38614;43.472;23.936;2023-12-22T14:40:53;5.70;;;1.50;;
41829;SDS011;38614;43.472;23.936;2023-12-22T14:43:41;16.50;;;1.17;;
41829;SDS011;38614;43.472;23.936;2023-12-22T14:46:29;8.77;;;2.30;;
41829;SDS011;38614;43.472;23.936;2023-12-22T14:49:17;6.80;;;2.28;;
41829;SDS011;38614;43.472;23.936;2023-12-22T14:52:07;4.30;;;1.40;;
41829;SDS011;38614;43.472;23.936;2023-12-22T14:54:58;1.83;;;1.33;;
41829;SDS011;38614;43.472;23.936;2023-12-22T14:57:46;5.95;;;1.70;;
41829;SDS011;38614;43.472;23.936;2023-12-22T15:00:34;8.00;;;1.40;;
41829;SDS011;38614;43.472;23.936;2023-12-22T15:03:21;10.90;;;2.28;;
41829;SDS011;38614;43.472;23.936;2023-12-22T15:06:09;5.10;;;2.03;;
41829;SDS011;38614;43.472;23.936;2023-12-22T15:09:01;7.55;;;2.50;;
41829;SDS011;38614;43.472;23.936;2023-12-22T15:11:49;14.23;;;2.83;;
41829;SDS011;38614;43.472;23.936;2023-12-22T15:14:42;5.88;;;1.13;;
41829;SDS011;38614;43.472;23.936;2023-12-22T15:17:30;1.13;;;0.73;;
41829;SDS011;38614;43.472;23.936;2023-12-22T15:20:21;3.50;;;0.38;;
41829;SDS011;38614;43.472;23.936;2023-12-22T15:23:10;3.25;;;0.47;;
41829;SDS011;38614;43.472;23.936;2023-12-22T15:25:58;2.67;;;0.65;;
41829;SDS011;38614;43.472;23.936;2023-12-22T15:28:46;4.80;;;1.45;;
41829;SDS011;38614;43.472;23.936;2023-12-22T15:31:33;9.00;;;1.20;;
41829;SDS011;38614;43.472;23.936;2023-12-22T15:34:26;5.00;;;1.02;;
41829;SDS011;38614;43.472;23.936;2023-12-22T15:37:14;8.65;;;1.52;;
41829;SDS011;38614;43.472;23.936;2023-12-22T15:40:02;3.05;;;1.05;;
41829;SDS011;38614;43.472;23.936;2023-12-22T15:42:51;3.92;;;0.93;;
41829;SDS011;38614;43.472;23.936;2023-12-22T15:45:39;9.27;;;0.63;;
41829;SDS011;38614;43.472;23.936;2023-12-22T15:48:26;2.38;;;0.70;;
41829;SDS011;38614;43.472;23.936;2023-12-22T15:51:14;1.83;;;0.32;;
41829;SDS011;38614;43.472;23.936;2023-12-22T15:54:06;1.23;;;0.63;;
41829;SDS011;38614;43.472;23.936;2023-12-22T15:56:54;2.45;;;0.70;;
41829;SDS011;38614;43.472;23.936;2023-12-22T15:59:43;11.02;;;1.48;;
41829;SDS011;38614;43.472;23.936;2023-12-22T16:02:31;1.95;;;0.50;;
41829;SDS011;38614;43.472;23.936;2023-12-22T16:05:21;7.90;;;1.23;;
41829;SDS011;38614;43.472;23.936;2023-12-22T16:08:10;2.55;;;0.50;;
41829;SDS011;38614;43.472;23.936;2023-12-22T16:10:58;2.67;;;0.50;;
41829;SDS011;38614;43.472;23.936;2023-12-22T16:13:47;9.98;;;1.60;;
41829;SDS011;38614;43.472;23.936;2023-12-22T16:16:34;10.13;;;1.92;;
41829;SDS011;38614;43.472;23.936;2023-12-22T16:19:22;10.65;;;2.97;;
41829;SDS011;38614;43.472;23.936;2023-12-22T16:22:10;1.27;;;0.43;;
41829;SDS011;38614;43.472;23.936;2023-12-22T16:24:58;1.98;;;0.65;;
41829;SDS011;38614;43.472;23.936;2023-12-22T16:27:46;2.60;;;0.77;;
41829;SDS011;38614;43.472;23.936;2023-12-22T16:30:34;1.75;;;0.77;;
41829;SDS011;38614;43.472;23.936;2023-12-22T16:33:22;1.83;;;0.35;;
41829;SDS011;38614;43.472;23.936;2023-12-22T16:36:10;1.05;;;0.28;;
41829;SDS011;38614;43.472;23.936;2023-12-22T16:38:58;8.75;;;1.10;;